Search for airport 
image banner adimage banner adimage banner ad
image banner ad

IA63 - Edgren

Located in Oskaloosa, United States

ICAO - IA63, IATA -

Data provided by Airmate  

General information

Coordinates: N41°15'30" W92°33'5"
Elevation is 840 feet MSL.
Magnetic variation is 03° East
View others Airports in Iowa

Operational data

Special qualification required
Current time UTC:
Current local time:
Weather at : KOOA - Oskaloosa Muni ( 6 km )
METAR: KOOA 181815Z AUTO 30006KT 30/21 A2989 RMK AO2 T03000213 PWINO
View NOTAMs / SUP AIP / TFR affecting this airport [VIEW]
Communications frequencies: [VIEW]

Runways:

RWY identifierQFULength (ft)Width (ft)SurfaceLDA (ft)
18226070GRASS
36226070GRASS

Airport contact information

Address: Oskaloosa United States

Satellite view of IA63